createdAt,value
2017-10-18T00:00:12.405Z,92.51
2017-10-18T00:02:40.780Z,92.21
2017-10-18T00:05:09.163Z,92.02
2017-10-18T00:07:37.537Z,91.84
2017-10-18T00:10:05.918Z,92.32
2017-10-18T00:12:34.289Z,92.72
2017-10-18T00:15:02.656Z,92.79
2017-10-18T00:17:31.808Z,92.62
2017-10-18T00:20:00.209Z,92.21
2017-10-18T00:22:28.580Z,91.75
2017-10-18T00:24:56.945Z,91.61
2017-10-18T00:27:25.321Z,91.36
2017-10-18T00:29:53.698Z,91.28
2017-10-18T00:32:22.066Z,91.08
2017-10-18T00:34:50.449Z,91.09
2017-10-18T00:37:18.817Z,90.91
2017-10-18T00:39:47.177Z,90.91
2017-10-18T00:42:16.309Z,90.95
2017-10-18T00:44:44.681Z,90.94
2017-10-18T00:47:13.083Z,90.93
2017-10-18T00:49:41.445Z,91.05
2017-10-18T00:52:09.811Z,91.02
2017-10-18T00:54:38.196Z,91.84
2017-10-18T00:57:06.565Z,92.54
2017-10-18T00:59:34.966Z,92.64
2017-10-18T01:02:03.340Z,92.36
2017-10-18T01:04:31.708Z,92.88
2017-10-18T01:07:00.090Z,92.94
2017-10-18T01:09:28.483Z,92.81
2017-10-18T01:11:56.856Z,93.20
2017-10-18T01:14:25.233Z,93.13
2017-10-18T01:16:53.598Z,92.78
2017-10-18T01:19:21.961Z,92.74
2017-10-18T01:21:50.398Z,92.53
2017-10-18T01:24:18.770Z,92.43
2017-10-18T01:26:47.593Z,92.79
2017-10-18T01:29:16.733Z,92.34
2017-10-18T01:31:45.097Z,93.72
2017-10-18T01:34:13.461Z,93.91
2017-10-18T01:36:42.785Z,95.05
2017-10-18T01:39:11.158Z,94.54
2017-10-18T01:41:39.538Z,93.72
2017-10-18T01:44:07.902Z,94.74
2017-10-18T01:46:36.273Z,95.07
2017-10-18T01:49:04.678Z,94.63
2017-10-18T01:51:33.091Z,94.38
2017-10-18T01:54:01.481Z,94.77
2017-10-18T01:56:30.645Z,94.43
2017-10-18T01:58:59.037Z,93.80
2017-10-18T02:01:27.408Z,93.94
2017-10-18T02:03:55.797Z,93.66
2017-10-18T02:06:24.164Z,94.42
2017-10-18T02:08:52.533Z,93.87
2017-10-18T02:11:20.904Z,93.63
2017-10-18T02:13:49.279Z,93.09
2017-10-18T02:16:17.637Z,94.02
2017-10-18T02:18:46.018Z,93.54
2017-10-18T02:21:14.381Z,93.89
2017-10-18T02:23:42.769Z,93.87
2017-10-18T02:26:11.140Z,93.54
2017-10-18T02:28:39.514Z,93.63
2017-10-18T02:31:09.410Z,93.57
2017-10-18T02:33:38.580Z,93.61
2017-10-18T02:36:06.969Z,93.46
2017-10-18T02:38:35.349Z,93.69
2017-10-18T02:41:03.709Z,93.13
2017-10-18T02:43:32.082Z,92.91
2017-10-18T02:46:00.454Z,92.60
2017-10-18T02:48:28.838Z,92.77
2017-10-18T02:50:57.216Z,92.94
2017-10-18T02:53:25.604Z,92.84
2017-10-18T02:55:53.969Z,92.50
2017-10-18T02:58:22.349Z,93.04
2017-10-18T03:00:50.711Z,93.39
2017-10-18T03:03:19.086Z,93.69
2017-10-18T03:05:47.458Z,93.12
2017-10-18T03:08:15.833Z,93.93
2017-10-18T03:10:44.206Z,93.17
2017-10-18T03:13:12.676Z,92.90
2017-10-18T03:15:41.813Z,93.75
2017-10-18T03:18:10.188Z,94.33
2017-10-18T03:20:38.569Z,95.25
2017-10-18T03:23:07.717Z,95.72
2017-10-18T03:25:36.103Z,96.45
2017-10-18T03:28:05.397Z,98.19
2017-10-18T03:30:33.773Z,98.86
2017-10-18T03:33:02.174Z,100.00
2017-10-18T03:35:30.557Z,100.00
2017-10-18T03:37:58.933Z,100.00
2017-10-18T03:40:27.322Z,100.00
2017-10-18T03:42:55.700Z,100.00
2017-10-18T03:45:24.098Z,100.00
2017-10-18T03:47:52.470Z,100.00
2017-10-18T03:50:20.853Z,100.00
2017-10-18T03:52:49.244Z,100.00
2017-10-18T03:55:17.600Z,99.50
2017-10-18T03:57:45.969Z,98.39
2017-10-18T04:00:14.338Z,97.01
2017-10-18T04:02:42.722Z,95.81
2017-10-18T04:05:11.100Z,96.09
2017-10-18T04:07:39.477Z,96.63
2017-10-18T04:10:07.837Z,96.74
2017-10-18T04:12:36.211Z,95.98
2017-10-18T04:15:04.581Z,94.65
2017-10-18T04:17:33.013Z,94.47
2017-10-18T04:20:01.390Z,93.96
2017-10-18T04:22:30.738Z,93.57
2017-10-18T04:24:59.872Z,93.16
2017-10-18T04:27:28.238Z,92.87
2017-10-18T04:29:56.609Z,92.64
2017-10-18T04:32:25.745Z,91.96
2017-10-18T04:34:54.129Z,92.29
2017-10-18T04:37:22.509Z,91.96
2017-10-18T04:39:50.885Z,92.04
2017-10-18T04:42:19.433Z,91.80
2017-10-18T04:44:48.561Z,91.82
2017-10-18T04:47:16.934Z,91.93
2017-10-18T04:49:45.312Z,91.29
2017-10-18T04:52:13.675Z,91.27
2017-10-18T04:54:42.037Z,91.91
2017-10-18T04:57:10.403Z,91.69
2017-10-18T04:59:38.779Z,91.20
2017-10-18T05:02:07.158Z,91.61
2017-10-18T05:04:36.337Z,91.51
2017-10-18T05:07:04.724Z,91.68
2017-10-18T05:09:33.099Z,91.94
2017-10-18T05:12:01.467Z,91.53
2017-10-18T05:14:29.829Z,91.68
2017-10-18T05:16:58.201Z,92.59
2017-10-18T05:19:26.571Z,92.14
2017-10-18T05:21:54.957Z,92.81
2017-10-18T05:24:23.330Z,92.48
2017-10-18T05:26:51.706Z,92.54
2017-10-18T05:29:20.092Z,92.92
2017-10-18T05:31:48.458Z,93.30
2017-10-18T05:34:16.845Z,93.70
2017-10-18T05:36:47.063Z,94.28
2017-10-18T05:39:15.424Z,94.44
2017-10-18T05:41:43.793Z,94.40
2017-10-18T05:44:12.169Z,93.92
2017-10-18T05:46:40.800Z,94.53
2017-10-18T05:49:09.184Z,96.40
2017-10-18T05:51:37.576Z,97.09
2017-10-18T05:54:05.952Z,96.55
2017-10-18T05:56:34.313Z,96.56
2017-10-18T05:59:02.709Z,95.13
2017-10-18T06:01:31.088Z,96.45
2017-10-18T06:03:59.450Z,95.97
2017-10-18T06:06:27.825Z,95.38
2017-10-18T06:08:56.201Z,95.61
2017-10-18T06:11:24.583Z,95.56
2017-10-18T06:13:52.949Z,94.71
2017-10-18T06:16:21.330Z,94.74
2017-10-18T06:18:49.719Z,95.36
2017-10-18T06:21:18.099Z,95.18
2017-10-18T06:23:46.488Z,95.24
2017-10-18T06:26:14.857Z,95.50
2017-10-18T06:28:43.232Z,95.08
2017-10-18T06:31:11.609Z,94.99
2017-10-18T06:33:39.986Z,93.69
2017-10-18T06:36:08.360Z,93.29
2017-10-18T06:38:36.731Z,93.75
2017-10-18T06:41:05.104Z,93.58
2017-10-18T06:43:33.481Z,93.18
2017-10-18T06:46:01.850Z,93.14
2017-10-18T06:48:30.222Z,92.77
2017-10-18T06:50:58.585Z,92.14
2017-10-18T06:53:27.729Z,92.33
2017-10-18T06:55:56.106Z,92.71
2017-10-18T06:58:24.472Z,92.20
2017-10-18T07:00:52.842Z,92.51
2017-10-18T07:03:21.214Z,92.97
2017-10-18T07:05:49.590Z,92.35
2017-10-18T07:08:17.969Z,93.04
2017-10-18T07:10:46.346Z,94.02
2017-10-18T07:13:14.724Z,93.15
2017-10-18T07:15:43.100Z,92.33
2017-10-18T07:18:11.481Z,91.89
2017-10-18T07:20:39.852Z,91.57
2017-10-18T07:23:08.237Z,90.83
2017-10-18T07:25:36.614Z,91.07
2017-10-18T07:28:04.991Z,90.84
2017-10-18T07:30:33.366Z,93.16
2017-10-18T07:33:02.516Z,93.04
2017-10-18T07:35:30.887Z,93.93
2017-10-18T07:37:59.262Z,93.46
2017-10-18T07:40:27.633Z,92.28
2017-10-18T07:42:56.015Z,92.84
2017-10-18T07:45:24.421Z,92.45
2017-10-18T07:47:52.777Z,92.23
2017-10-18T07:50:21.154Z,91.76
2017-10-18T07:52:49.528Z,90.86
2017-10-18T07:55:17.902Z,91.51
2017-10-18T07:57:46.290Z,91.68
2017-10-18T08:00:14.665Z,91.33
2017-10-18T08:02:43.889Z,91.61
2017-10-18T08:05:13.533Z,91.30
2017-10-18T08:07:42.677Z,91.10
2017-10-18T08:10:11.049Z,90.52
2017-10-18T08:12:40.205Z,90.80
2017-10-18T08:15:08.581Z,90.85
2017-10-18T08:17:37.717Z,90.98
2017-10-18T08:20:06.093Z,90.85
2017-10-18T08:22:34.474Z,91.09
2017-10-18T08:25:02.853Z,90.63
2017-10-18T08:27:31.224Z,90.39
2017-10-18T08:29:59.604Z,90.49
2017-10-18T08:32:27.983Z,90.54
2017-10-18T08:34:56.455Z,90.23
2017-10-18T08:37:24.821Z,89.58
2017-10-18T08:39:53.209Z,89.06
2017-10-18T08:42:21.594Z,89.10
2017-10-18T08:44:49.991Z,88.53
2017-10-18T08:47:18.400Z,89.52
2017-10-18T08:49:47.549Z,91.75
2017-10-18T08:52:15.928Z,90.78
2017-10-18T08:54:44.314Z,91.90
2017-10-18T08:57:12.698Z,92.82
2017-10-18T08:59:41.109Z,91.93
2017-10-18T09:02:09.485Z,92.27
2017-10-18T09:04:37.856Z,92.26
2017-10-18T09:07:06.225Z,92.79
2017-10-18T09:09:34.618Z,92.35
2017-10-18T09:12:02.996Z,92.07
2017-10-18T09:14:31.374Z,91.72
2017-10-18T09:16:59.749Z,91.94
2017-10-18T09:19:28.126Z,93.20
2017-10-18T09:21:56.659Z,93.96
2017-10-18T09:24:25.031Z,93.61
2017-10-18T09:26:53.410Z,93.58
2017-10-18T09:29:21.798Z,93.02
2017-10-18T09:31:50.189Z,93.37
2017-10-18T09:34:18.578Z,93.86
2017-10-18T09:36:46.957Z,93.42
2017-10-18T09:39:15.340Z,93.17
2017-10-18T09:41:43.741Z,92.46
2017-10-18T09:44:12.125Z,92.12
2017-10-18T09:46:41.917Z,91.32
2017-10-18T09:49:10.290Z,90.59
2017-10-18T09:51:38.671Z,91.18
2017-10-18T09:54:07.068Z,90.03
2017-10-18T09:56:35.442Z,91.13
2017-10-18T09:59:03.820Z,89.99
2017-10-18T10:01:32.210Z,91.17
2017-10-18T10:04:01.379Z,90.27
2017-10-18T10:06:29.767Z,90.40
2017-10-18T10:08:58.160Z,91.46
2017-10-18T10:11:26.542Z,89.11
2017-10-18T10:13:54.951Z,88.75
2017-10-18T10:16:23.328Z,89.72
2017-10-18T10:18:51.699Z,88.83
2017-10-18T10:21:21.453Z,87.34
2017-10-18T10:23:49.822Z,86.48
2017-10-18T10:26:18.212Z,85.66
2017-10-18T10:28:46.590Z,86.84
2017-10-18T10:31:14.969Z,86.02
2017-10-18T10:33:43.345Z,85.31
2017-10-18T10:36:11.726Z,87.04
2017-10-18T10:38:40.102Z,87.57
2017-10-18T10:41:08.472Z,87.23
2017-10-18T10:43:36.851Z,86.72
2017-10-18T10:46:05.216Z,88.77
2017-10-18T10:48:33.585Z,88.12
2017-10-18T10:51:01.953Z,89.34
2017-10-18T10:53:31.093Z,86.00
2017-10-18T10:55:59.473Z,84.79
2017-10-18T10:58:27.855Z,85.57
2017-10-18T11:00:56.234Z,85.82
2017-10-18T11:03:24.609Z,84.42
2017-10-18T11:05:53.012Z,83.33
2017-10-18T11:08:21.386Z,83.30
2017-10-18T11:10:49.761Z,83.51
2017-10-18T11:13:18.137Z,83.94
2017-10-18T11:15:46.531Z,85.64
2017-10-18T11:18:14.912Z,83.79
2017-10-18T11:20:43.819Z,83.76
2017-10-18T11:23:12.185Z,84.42
2017-10-18T11:25:40.570Z,86.43
2017-10-18T11:28:08.951Z,85.45
2017-10-18T11:30:37.394Z,82.35
2017-10-18T11:33:05.773Z,83.84
2017-10-18T11:35:34.150Z,82.72
2017-10-18T11:38:02.525Z,83.06
2017-10-18T11:40:30.912Z,80.40
2017-10-18T11:42:59.292Z,78.86
2017-10-18T11:45:27.680Z,77.54
2017-10-18T11:47:56.057Z,77.17
2017-10-18T11:50:24.431Z,76.34
2017-10-18T11:52:52.806Z,75.54
2017-10-18T11:55:21.189Z,75.17
2017-10-18T11:57:49.566Z,73.53
2017-10-18T12:00:17.946Z,76.38
2017-10-18T12:02:46.329Z,73.71
2017-10-18T12:05:14.705Z,73.10
2017-10-18T12:07:43.113Z,73.25
2017-10-18T12:10:11.491Z,72.44
2017-10-18T12:12:39.881Z,71.19
2017-10-18T12:15:08.249Z,70.73
2017-10-18T12:17:36.622Z,71.12
2017-10-18T12:20:05.928Z,69.10
2017-10-18T12:22:34.289Z,68.12
2017-10-18T12:25:02.664Z,68.47
2017-10-18T12:27:32.603Z,69.95
2017-10-18T12:30:00.977Z,68.67
2017-10-18T12:32:29.355Z,67.82
2017-10-18T12:34:57.735Z,69.37
2017-10-18T12:37:26.111Z,68.86
2017-10-18T12:39:54.476Z,67.70
2017-10-18T12:42:22.852Z,67.68
2017-10-18T12:44:51.227Z,65.73
2017-10-18T12:47:19.593Z,65.16
2017-10-18T12:49:47.953Z,64.41
2017-10-18T12:52:16.333Z,63.97
2017-10-18T12:54:46.165Z,64.59
2017-10-18T12:57:14.623Z,66.24
2017-10-18T12:59:43.005Z,64.87
2017-10-18T13:02:11.373Z,66.02
2017-10-18T13:04:39.751Z,67.28
2017-10-18T13:07:08.143Z,67.63
2017-10-18T13:09:36.517Z,66.01
2017-10-18T13:12:04.885Z,64.66
2017-10-18T13:14:33.470Z,63.78
2017-10-18T13:17:01.845Z,62.13
2017-10-18T13:19:31.737Z,61.62
2017-10-18T13:22:00.569Z,61.72
2017-10-18T13:24:28.932Z,62.71
2017-10-18T13:26:57.304Z,62.20
2017-10-18T13:29:25.692Z,59.12
2017-10-18T13:31:54.111Z,60.94
2017-10-18T13:34:23.429Z,61.51
2017-10-18T13:36:51.806Z,62.64
2017-10-18T13:39:20.165Z,62.24
2017-10-18T13:41:48.533Z,62.33
2017-10-18T13:44:17.016Z,60.13
2017-10-18T13:46:45.366Z,60.91
2017-10-18T13:49:13.732Z,61.25
2017-10-18T13:51:42.116Z,62.41
2017-10-18T13:54:10.496Z,62.68
2017-10-18T13:56:38.855Z,62.10
2017-10-18T13:59:07.223Z,64.66
2017-10-18T14:01:35.593Z,63.67
2017-10-18T14:04:03.949Z,62.19
2017-10-18T14:06:32.313Z,59.63
2017-10-18T14:09:00.694Z,57.87
2017-10-18T14:11:29.069Z,55.84
2017-10-18T14:13:57.435Z,58.06
2017-10-18T14:16:25.805Z,58.49
2017-10-18T14:18:54.189Z,60.00
2017-10-18T14:21:22.569Z,59.45
2017-10-18T14:23:50.949Z,61.39
2017-10-18T14:26:19.319Z,60.77
2017-10-18T14:28:47.692Z,61.79
2017-10-18T14:31:16.087Z,63.25
2017-10-18T14:33:44.456Z,64.64
2017-10-18T14:36:12.821Z,62.38
2017-10-18T14:38:41.197Z,64.22
2017-10-18T14:41:09.552Z,65.79
2017-10-18T14:43:37.909Z,66.77
2017-10-18T14:46:06.273Z,66.49
2017-10-18T14:48:34.643Z,64.28
2017-10-18T14:51:03.009Z,60.32
2017-10-18T14:53:31.384Z,58.28
2017-10-18T14:55:59.758Z,56.91
2017-10-18T14:58:28.126Z,56.20
2017-10-18T15:00:56.491Z,56.02
2017-10-18T15:03:25.537Z,58.32
2017-10-18T15:05:53.905Z,60.90
2017-10-18T15:08:22.308Z,61.23
2017-10-18T15:10:50.678Z,60.64
2017-10-18T15:13:19.855Z,61.46
2017-10-18T15:15:48.223Z,63.13
2017-10-18T15:18:16.588Z,63.14
2017-10-18T15:20:44.953Z,61.92
2017-10-18T15:23:13.309Z,62.39
2017-10-18T15:25:41.666Z,62.65
2017-10-18T15:28:10.040Z,63.41
2017-10-18T15:30:39.066Z,64.84
2017-10-18T15:33:07.441Z,67.19
2017-10-18T15:35:35.825Z,68.48
2017-10-18T15:38:04.870Z,69.47
2017-10-18T15:40:40.164Z,69.87
2017-10-18T15:43:08.545Z,70.72
2017-10-18T15:45:36.919Z,71.32
2017-10-18T15:48:05.299Z,71.68
2017-10-18T15:50:33.666Z,72.23
2017-10-18T15:53:02.060Z,71.91
2017-10-18T15:55:30.469Z,72.54
2017-10-18T15:57:58.853Z,72.77
2017-10-18T16:00:27.251Z,72.96
2017-10-18T16:02:55.637Z,73.40
2017-10-18T16:05:24.796Z,75.04
2017-10-18T16:07:53.215Z,74.84
2017-10-18T16:10:21.597Z,75.35
2017-10-18T16:12:49.965Z,75.21
2017-10-18T16:15:18.345Z,75.02
2017-10-18T16:17:46.725Z,75.60
2017-10-18T16:20:15.097Z,75.49
2017-10-18T16:22:43.547Z,75.96
2017-10-18T16:25:11.924Z,77.21
2017-10-18T16:27:40.290Z,76.81
2017-10-18T16:30:08.659Z,77.20
2017-10-18T16:32:37.018Z,77.32
2017-10-18T16:35:06.156Z,80.60
2017-10-18T16:37:34.529Z,83.92
2017-10-18T16:40:02.892Z,83.35
2017-10-18T16:42:31.280Z,84.04
2017-10-18T16:44:59.673Z,82.80
2017-10-18T16:47:28.040Z,81.95
2017-10-18T16:49:56.397Z,81.68
2017-10-18T16:52:24.773Z,81.61
2017-10-18T16:54:53.174Z,80.97
2017-10-18T16:57:21.978Z,81.15
2017-10-18T16:59:50.394Z,81.35
2017-10-18T17:02:18.773Z,81.15
2017-10-18T17:04:47.909Z,81.17
2017-10-18T17:07:41.953Z,82.11
2017-10-18T17:13:10.861Z,81.96
2017-10-18T17:15:40.666Z,82.26
2017-10-18T17:18:09.041Z,81.63
2017-10-18T17:20:37.418Z,82.04
2017-10-18T17:23:05.807Z,84.27
2017-10-18T17:25:35.097Z,83.34
2017-10-18T17:28:03.478Z,82.73
2017-10-18T17:30:31.849Z,82.95
2017-10-18T17:33:00.237Z,83.19
2017-10-18T17:35:28.608Z,83.33
2017-10-18T17:37:56.969Z,83.21
2017-10-18T17:40:25.350Z,83.24
2017-10-18T17:42:53.725Z,85.36
2017-10-18T17:45:22.115Z,85.77
2017-10-18T17:47:50.682Z,84.99
2017-10-18T17:50:19.073Z,84.08
2017-10-18T17:52:47.439Z,83.86
2017-10-18T17:55:15.831Z,84.44
2017-10-18T17:57:44.213Z,83.92
2017-10-18T18:00:12.595Z,83.53
2017-10-18T18:02:40.980Z,83.51
2017-10-18T18:05:09.389Z,84.25
2017-10-18T18:07:37.766Z,84.61
2017-10-18T18:10:06.909Z,84.28
2017-10-18T18:12:35.307Z,83.98
2017-10-18T18:15:03.694Z,84.95
2017-10-18T18:17:32.086Z,85.92
2017-10-18T18:20:00.466Z,84.91
2017-10-18T18:22:28.857Z,84.48
2017-10-18T18:24:58.007Z,84.11
2017-10-18T18:27:26.394Z,85.54
2017-10-18T18:29:54.783Z,85.31
2017-10-18T18:32:23.158Z,86.36
2017-10-18T18:34:51.536Z,85.58
2017-10-18T18:37:19.912Z,85.02
2017-10-18T18:39:48.298Z,84.91
2017-10-18T18:42:16.680Z,84.81
2017-10-18T18:44:45.065Z,84.46
2017-10-18T18:47:13.428Z,84.66
2017-10-18T18:49:41.808Z,85.43
2017-10-18T18:52:10.186Z,85.87
2017-10-18T18:54:38.561Z,86.46
2017-10-18T18:57:07.273Z,87.29
2017-10-18T18:59:35.668Z,86.55
2017-10-18T19:02:04.815Z,85.60
2017-10-18T19:04:33.241Z,85.31
2017-10-18T19:07:01.667Z,85.05
2017-10-18T19:09:30.059Z,87.34
2017-10-18T19:11:58.492Z,87.74
2017-10-18T19:14:28.001Z,86.63
2017-10-18T19:16:56.414Z,85.68
2017-10-18T19:19:24.795Z,85.22
2017-10-18T19:21:53.172Z,84.87
2017-10-18T19:24:22.351Z,85.62
2017-10-18T19:26:50.735Z,87.10
2017-10-18T19:29:19.116Z,87.24
2017-10-18T19:31:47.503Z,86.63
2017-10-18T19:34:15.871Z,86.46
2017-10-18T19:36:44.249Z,86.02
2017-10-18T19:39:12.742Z,85.89
2017-10-18T19:41:41.121Z,86.53
2017-10-18T19:44:09.491Z,85.83
2017-10-18T19:46:37.874Z,85.95
2017-10-18T19:49:06.253Z,86.98
2017-10-18T19:51:34.649Z,87.68
2017-10-18T19:54:03.017Z,87.19
2017-10-18T19:56:31.394Z,89.25
2017-10-18T19:58:59.773Z,89.52
2017-10-18T20:01:28.155Z,89.59
2017-10-18T20:03:56.541Z,89.87
2017-10-18T20:06:24.920Z,90.04
2017-10-18T20:08:53.297Z,89.61
2017-10-18T20:11:21.681Z,90.81
2017-10-18T20:13:50.097Z,90.96
2017-10-18T20:16:18.886Z,90.92
2017-10-18T20:18:47.262Z,90.42
2017-10-18T20:21:15.641Z,90.19
2017-10-18T20:23:44.011Z,89.81
2017-10-18T20:26:13.157Z,90.80
2017-10-18T20:28:41.525Z,91.87
2017-10-18T20:31:09.899Z,92.52
2017-10-18T20:33:38.272Z,91.40
2017-10-18T20:36:06.639Z,91.05
2017-10-18T20:38:35.005Z,90.43
2017-10-18T20:41:03.378Z,90.27
2017-10-18T20:43:32.522Z,90.61
2017-10-18T20:46:00.893Z,90.13
2017-10-18T20:48:29.297Z,88.75
2017-10-18T20:50:57.671Z,88.45
2017-10-18T20:53:26.044Z,89.87
2017-10-18T20:55:54.414Z,89.06
2017-10-18T20:58:22.786Z,88.42
2017-10-18T21:00:51.154Z,88.32
2017-10-18T21:03:19.526Z,89.00
2017-10-18T21:05:47.929Z,90.03
2017-10-18T21:08:16.320Z,89.98
2017-10-18T21:10:44.686Z,90.62
2017-10-18T21:13:13.058Z,90.78
2017-10-18T21:15:41.437Z,91.52
2017-10-18T21:18:09.798Z,92.17
2017-10-18T21:20:38.233Z,92.01
2017-10-18T21:23:07.385Z,92.23
2017-10-18T21:25:35.812Z,92.18
2017-10-18T21:28:04.178Z,92.59
2017-10-18T21:30:32.554Z,93.31
2017-10-18T21:33:00.925Z,92.67
2017-10-18T21:35:29.301Z,93.12
2017-10-18T21:37:57.680Z,92.64
2017-10-18T21:40:26.063Z,92.40
2017-10-18T21:42:54.438Z,91.62
2017-10-18T21:45:22.819Z,92.26
2017-10-18T21:47:51.186Z,92.41
2017-10-18T21:50:19.558Z,92.39
2017-10-18T21:52:47.935Z,92.94
2017-10-18T21:55:16.315Z,92.71
2017-10-18T21:57:44.693Z,92.27
2017-10-18T22:00:13.064Z,92.76
2017-10-18T22:02:41.426Z,93.55
2017-10-18T22:05:09.801Z,93.03
2017-10-18T22:07:38.170Z,93.26
2017-10-18T22:10:06.553Z,93.71
2017-10-18T22:12:34.922Z,93.47
2017-10-18T22:15:04.064Z,92.88
2017-10-18T22:17:32.454Z,92.82
2017-10-18T22:20:00.824Z,93.18
2017-10-18T22:22:29.206Z,92.82
2017-10-18T22:24:57.587Z,92.63
2017-10-18T22:27:25.968Z,91.98
2017-10-18T22:29:54.344Z,91.81
2017-10-18T22:32:22.713Z,91.71
2017-10-18T22:34:51.090Z,91.45
2017-10-18T22:37:19.461Z,91.14
2017-10-18T22:39:47.846Z,91.53
2017-10-18T22:42:16.218Z,91.18
2017-10-18T22:44:44.601Z,90.74
2017-10-18T22:47:12.965Z,90.61
2017-10-18T22:49:41.324Z,90.52
2017-10-18T22:52:09.705Z,90.80
2017-10-18T22:54:38.130Z,90.57
2017-10-18T22:57:06.500Z,91.98
2017-10-18T22:59:34.865Z,91.90
2017-10-18T23:02:03.229Z,92.01
2017-10-18T23:04:31.594Z,92.32
2017-10-18T23:06:59.969Z,92.48
2017-10-18T23:09:28.325Z,93.06
2017-10-18T23:11:56.693Z,92.95
2017-10-18T23:14:25.072Z,92.48
2017-10-18T23:16:53.441Z,92.29
2017-10-18T23:19:21.811Z,92.23
2017-10-18T23:21:50.186Z,93.44
2017-10-18T23:24:18.558Z,93.02
2017-10-18T23:26:47.271Z,92.52
2017-10-18T23:29:15.656Z,92.54
2017-10-18T23:31:44.030Z,92.36
2017-10-18T23:34:12.410Z,92.47
2017-10-18T23:36:42.412Z,92.63
2017-10-18T23:39:10.788Z,92.28
2017-10-18T23:41:39.161Z,92.24
2017-10-18T23:44:07.542Z,92.37
2017-10-18T23:46:35.900Z,93.10
2017-10-18T23:49:04.264Z,93.86
2017-10-18T23:51:32.634Z,94.18
2017-10-18T23:54:00.998Z,94.50
2017-10-18T23:56:29.380Z,93.79
2017-10-18T23:58:57.753Z,94.20
